Greenville Spartanburg International Airport Greenville US
ICAO: KGSP
IATA: GSP
Category: Large
Scheduled Services: Yes

Elevation: 964 ft
TransAlt. 18000 ft.

Airport Communications:
GREER APP/DEP:120.6
ATIS:134.25
CTAF:120.1
GREER GND:121.9
GREER TWR:120.1
UNICOM:122.95

KGSP Zoom In..

Runways:

(A) RW 04 length 11001 ft width 150 ft
ILS 109.30 / hdg 38

(B) RW 22 length 11001 ft width 150 ft
ILS 110.70 / hdg 218

Location; KGSP
Day. 19 / Time. 02.53 Zulu
* Altimeter: 29.98
* Temperature: 26° c. 78.8°f.
* Wind from: 000° Speed 00 kn.
Dewpoint: 22° c.
Visibility: 10 Statute Miles.
Clouds: Broken 8000 ft.
Clouds: Overcast 9000 ft.

KGSP 190253Z 00000KT 10SM BKN080 OVC090 26/22 A2998 RMK AO2 RAB26E31 SLP139 P0000 60000 T02560217 51010


Wind - Calm.

 
 
jpsmedia.com for Web Design worldairports.se 2018   terms of use